Time;durP1;ratioP1;P1;durP2;ratioP2;P2;SDS_P1;SDS_P2;PMS_P1;PMS_P2;Temp;Humidity;BMP_temperature;BMP_pressure;BME280_temperature;BME280_humidity;BME280_pressure;Samples;Min_cycle;Max_cycle;Signal;HPM_P1;HPM_P2
2021/09/18 00:00:06;;;;;;;5.85;3.47;;;;;;;;;;5031774;28;20053;-76
2021/09/18 00:02:35;;;;;;;6.30;2.80;;;;;;;;;;5032158;28;20050;-77
2021/09/18 00:05:02;;;;;;;5.18;2.92;;;;;;;;;;5036102;28;20045;-77
2021/09/18 00:07:29;;;;;;;5.60;3.22;;;;;;;;;;5035828;28;20049;-76
2021/09/18 00:09:55;;;;;;;5.15;3.00;;;;;;;;;;5035258;28;20049;-77
2021/09/18 00:12:22;;;;;;;4.53;2.70;;;;;;;;;;5036130;28;20394;-77
2021/09/18 00:14:48;;;;;;;5.38;2.90;;;;;;;;;;5035834;28;20054;-76
2021/09/18 00:17:15;;;;;;;7.88;3.42;;;;;;;;;;5036707;28;20483;-77
2021/09/18 00:19:43;;;;;;;6.07;3.05;;;;;;;;;;5036048;28;20489;-76
2021/09/18 00:22:10;;;;;;;4.28;2.92;;;;;;;;;;5035941;28;20052;-76
2021/09/18 00:24:37;;;;;;;4.43;2.88;;;;;;;;;;5034892;28;20053;-77
2021/09/18 00:27:04;;;;;;;8.10;3.22;;;;;;;;;;5034287;28;20049;-76
2021/09/18 00:29:30;;;;;;;5.40;3.22;;;;;;;;;;5034858;28;20045;-77
2021/09/18 00:31:57;;;;;;;5.22;2.80;;;;;;;;;;5035724;28;20053;-77
2021/09/18 00:34:24;;;;;;;5.78;2.50;;;;;;;;;;5036298;28;20061;-77
2021/09/18 00:36:51;;;;;;;5.88;3.13;;;;;;;;;;5035529;28;20475;-77
2021/09/18 00:39:18;;;;;;;5.63;2.65;;;;;;;;;;5034762;28;20049;-77
2021/09/18 00:41:44;;;;;;;4.93;3.13;;;;;;;;;;5035538;28;20057;-76
2021/09/18 00:44:16;;;;;;;3.90;2.40;;;;;;;;;;5032776;28;20065;-77
2021/09/18 00:46:43;;;;;;;5.93;3.00;;;;;;;;;;5026604;28;20053;-77
2021/09/18 00:49:09;;;;;;;4.32;2.70;;;;;;;;;;5034368;28;20042;-77
2021/09/18 00:51:36;;;;;;;7.50;2.75;;;;;;;;;;5034043;28;20054;-77
2021/09/18 00:54:04;;;;;;;3.75;2.53;;;;;;;;;;5030829;28;20046;-76
2021/09/18 00:56:31;;;;;;;5.25;2.90;;;;;;;;;;5034467;28;20471;-77
2021/09/18 00:58:57;;;;;;;5.13;2.67;;;;;;;;;;5034330;28;20068;-77
2021/09/18 01:01:24;;;;;;;4.22;2.58;;;;;;;;;;5033920;28;20045;-76
2021/09/18 01:03:50;;;;;;;3.90;2.47;;;;;;;;;;5034293;28;20475;-77
2021/09/18 01:06:17;;;;;;;4.30;3.08;;;;;;;;;;5033982;28;20395;-76
2021/09/18 01:08:43;;;;;;;4.20;2.85;;;;;;;;;;5033329;28;20052;-76
2021/09/18 01:11:11;;;;;;;4.32;2.58;;;;;;;;;;5034045;28;20045;-76
2021/09/18 01:13:38;;;;;;;6.25;2.80;;;;;;;;;;5030867;28;20526;-77
2021/09/18 01:16:05;;;;;;;8.07;2.80;;;;;;;;;;5034394;28;20403;-76
2021/09/18 01:18:31;;;;;;;5.90;3.00;;;;;;;;;;5033321;28;20049;-77
2021/09/18 01:20:58;;;;;;;4.65;3.03;;;;;;;;;;5033675;28;20060;-77
2021/09/18 01:23:26;;;;;;;4.18;2.92;;;;;;;;;;5034031;28;20060;-77
2021/09/18 01:25:52;;;;;;;4.97;2.60;;;;;;;;;;5033584;28;20371;-76
2021/09/18 01:28:19;;;;;;;4.95;2.88;;;;;;;;;;5032160;28;20050;-76
2021/09/18 01:30:46;;;;;;;4.95;2.92;;;;;;;;;;5033640;28;20045;-76
2021/09/18 01:33:13;;;;;;;6.20;3.00;;;;;;;;;;5033865;28;20047;-76
2021/09/18 01:35:39;;;;;;;5.95;3.35;;;;;;;;;;5033956;28;20056;-77
2021/09/18 01:38:06;;;;;;;7.80;3.10;;;;;;;;;;5033582;28;20037;-77
2021/09/18 01:40:36;;;;;;;4.07;2.67;;;;;;;;;;5033727;28;20394;-76
2021/09/18 01:43:03;;;;;;;4.13;2.58;;;;;;;;;;5033786;28;20627;-76
2021/09/18 01:45:32;;;;;;;6.63;2.75;;;;;;;;;;5033552;28;20380;-77
2021/09/18 01:47:59;;;;;;;3.30;2.33;;;;;;;;;;5033315;28;20049;-76
2021/09/18 01:50:28;;;;;;;6.75;2.60;;;;;;;;;;5033033;28;20475;-76
2021/09/18 01:52:56;;;;;;;5.30;2.70;;;;;;;;;;5033372;28;20056;-76
2021/09/18 01:55:23;;;;;;;4.20;2.83;;;;;;;;;;5033601;28;20053;-76
2021/09/18 01:57:52;;;;;;;3.15;2.00;;;;;;;;;;5029010;28;20052;-76
2021/09/18 02:00:19;;;;;;;5.60;2.60;;;;;;;;;;5033230;28;20045;-76
2021/09/18 02:02:46;;;;;;;4.63;2.90;;;;;;;;;;5033376;28;20483;-76
2021/09/18 02:05:13;;;;;;;4.88;2.72;;;;;;;;;;5033379;28;20045;-76
2021/09/18 02:07:40;;;;;;;4.30;2.78;;;;;;;;;;5033345;28;20491;-76
2021/09/18 02:10:08;;;;;;;4.65;2.67;;;;;;;;;;5033144;28;20038;-77
2021/09/18 02:12:35;;;;;;;4.65;2.63;;;;;;;;;;5030377;28;20055;-76
2021/09/18 02:15:03;;;;;;;5.13;2.55;;;;;;;;;;5033179;28;20049;-76
2021/09/18 02:17:30;;;;;;;6.05;2.83;;;;;;;;;;5032830;28;20057;-76
2021/09/18 02:19:56;;;;;;;4.93;3.15;;;;;;;;;;5032772;28;20041;-76
2021/09/18 02:22:23;;;;;;;8.25;3.55;;;;;;;;;;5034089;28;20061;-77
2021/09/18 02:24:49;;;;;;;5.50;3.42;;;;;;;;;;5033492;28;20501;-76
2021/09/18 02:27:16;;;;;;;8.32;3.42;;;;;;;;;;5031253;28;20045;-76
2021/09/18 02:29:42;;;;;;;4.75;3.10;;;;;;;;;;5029362;28;20049;-76
2021/09/18 02:32:10;;;;;;;9.25;3.80;;;;;;;;;;5033922;28;20065;-77
2021/09/18 02:34:37;;;;;;;4.53;2.63;;;;;;;;;;5033710;28;20049;-77
2021/09/18 02:37:04;;;;;;;5.63;3.03;;;;;;;;;;5035140;28;20046;-77
2021/09/18 02:39:30;;;;;;;4.68;3.40;;;;;;;;;;5031709;28;20049;-77
2021/09/18 02:41:57;;;;;;;5.18;3.30;;;;;;;;;;5032640;28;20499;-76
2021/09/18 02:44:23;;;;;;;6.38;3.60;;;;;;;;;;5033579;28;20041;-76
2021/09/18 02:46:50;;;;;;;5.80;3.45;;;;;;;;;;5032363;28;20049;-77
2021/09/18 02:49:18;;;;;;;6.45;3.20;;;;;;;;;;5031444;28;20053;-77
2021/09/18 02:51:44;;;;;;;4.38;2.88;;;;;;;;;;5032442;28;20057;-77
2021/09/18 02:54:11;;;;;;;4.97;2.90;;;;;;;;;;5032825;28;20045;-77
2021/09/18 02:56:37;;;;;;;5.43;3.17;;;;;;;;;;5032527;28;20045;-76
2021/09/18 02:59:04;;;;;;;5.20;3.20;;;;;;;;;;5031099;28;20046;-76
2021/09/18 03:01:30;;;;;;;4.50;3.00;;;;;;;;;;5031342;28;20045;-76
2021/09/18 03:03:57;;;;;;;4.40;2.70;;;;;;;;;;5033550;28;20053;-77
2021/09/18 03:06:25;;;;;;;6.13;2.70;;;;;;;;;;5032422;28;20053;-76
2021/09/18 03:08:51;;;;;;;8.57;3.67;;;;;;;;;;5032922;28;20057;-77
2021/09/18 03:11:18;;;;;;;6.35;3.40;;;;;;;;;;5032807;28;20042;-76
2021/09/18 03:13:45;;;;;;;4.68;3.10;;;;;;;;;;5033043;28;20076;-76
2021/09/18 03:16:12;;;;;;;5.97;3.20;;;;;;;;;;5033427;28;20064;-76
2021/09/18 03:18:38;;;;;;;4.15;2.50;;;;;;;;;;5032611;28;20514;-76
2021/09/18 03:21:05;;;;;;;4.53;2.67;;;;;;;;;;5032216;28;20052;-76
2021/09/18 03:23:33;;;;;;;4.50;3.20;;;;;;;;;;5030323;28;20053;-76
2021/09/18 03:26:00;;;;;;;4.38;2.78;;;;;;;;;;5032416;28;20041;-76
2021/09/18 03:28:26;;;;;;;5.85;3.17;;;;;;;;;;5033354;28;20060;-75
2021/09/18 03:30:53;;;;;;;4.50;2.88;;;;;;;;;;5031738;28;20515;-76
2021/09/18 03:33:19;;;;;;;5.82;2.88;;;;;;;;;;5031516;28;20056;-76
2021/09/18 03:35:46;;;;;;;4.75;3.17;;;;;;;;;;5032724;28;20057;-76
2021/09/18 03:38:13;;;;;;;6.65;2.97;;;;;;;;;;5036267;28;20491;-76
2021/09/18 03:40:41;;;;;;;5.57;3.30;;;;;;;;;;5037908;28;20068;-76
2021/09/18 03:43:08;;;;;;;6.68;3.03;;;;;;;;;;5037850;28;20505;-76
2021/09/18 03:45:34;;;;;;;4.35;2.72;;;;;;;;;;5029880;28;20467;-77
2021/09/18 03:48:00;;;;;;;4.53;2.58;;;;;;;;;;5036091;28;20099;-75
2021/09/18 03:50:27;;;;;;;6.80;3.50;;;;;;;;;;5034177;28;20046;-76
2021/09/18 03:52:53;;;;;;;4.22;2.75;;;;;;;;;;5037190;28;20051;-76
2021/09/18 03:55:20;;;;;;;3.65;2.40;;;;;;;;;;5036809;28;20498;-76
2021/09/18 03:57:48;;;;;;;4.63;2.95;;;;;;;;;;5040031;28;20046;-76
2021/09/18 04:00:14;;;;;;;6.30;3.20;;;;;;;;;;5035317;28;20049;-76
2021/09/18 04:02:41;;;;;;;5.55;2.92;;;;;;;;;;5037485;28;20052;-76
2021/09/18 04:05:08;;;;;;;6.63;3.20;;;;;;;;;;5035225;28;20041;-76
2021/09/18 04:07:35;;;;;;;4.30;2.70;;;;;;;;;;5033274;28;20042;-76
2021/09/18 04:10:01;;;;;;;5.85;2.97;;;;;;;;;;5036426;28;20052;-76
2021/09/18 04:12:28;;;;;;;3.67;2.65;;;;;;;;;;5036742;28;20495;-75
2021/09/18 04:14:56;;;;;;;5.15;3.35;;;;;;;;;;5036786;28;20064;-76
2021/09/18 04:17:23;;;;;;;4.85;2.50;;;;;;;;;;5036319;28;20053;-75
2021/09/18 04:19:50;;;;;;;4.38;2.58;;;;;;;;;;5034317;28;20041;-75
2021/09/18 04:22:17;;;;;;;5.32;3.10;;;;;;;;;;5034941;28;20045;-76
2021/09/18 04:24:44;;;;;;;4.43;2.63;;;;;;;;;;5035432;28;20399;-76
2021/09/18 04:27:11;;;;;;;4.55;2.78;;;;;;;;;;5034829;28;20418;-76
2021/09/18 04:29:38;;;;;;;4.25;2.95;;;;;;;;;;5034527;28;20049;-76
2021/09/18 04:32:06;;;;;;;5.70;3.47;;;;;;;;;;5037329;28;20065;-76
2021/09/18 04:34:33;;;;;;;4.47;2.40;;;;;;;;;;5032873;28;20038;-76
2021/09/18 04:36:59;;;;;;;5.18;3.08;;;;;;;;;;5035455;28;20060;-76
2021/09/18 04:39:26;;;;;;;4.53;2.83;;;;;;;;;;5034257;28;20650;-76
2021/09/18 04:41:53;;;;;;;5.78;3.30;;;;;;;;;;5035244;28;20052;-76
2021/09/18 04:44:19;;;;;;;4.45;2.78;;;;;;;;;;5036957;28;20057;-77
2021/09/18 04:46:46;;;;;;;4.20;2.70;;;;;;;;;;5036198;28;20053;-77
2021/09/18 04:49:14;;;;;;;4.80;2.85;;;;;;;;;;5035035;28;20042;-77
2021/09/18 04:51:40;;;;;;;4.57;2.83;;;;;;;;;;5034229;28;20046;-77
2021/09/18 04:54:07;;;;;;;4.80;2.55;;;;;;;;;;5035937;28;20049;-77
2021/09/18 04:56:33;;;;;;;5.45;3.13;;;;;;;;;;5035185;28;20408;-76
2021/09/18 04:59:00;;;;;;;4.43;2.92;;;;;;;;;;5033551;28;20045;-75
2021/09/18 05:01:26;;;;;;;5.43;2.83;;;;;;;;;;5036552;28;20068;-77
2021/09/18 05:03:53;;;;;;;5.95;3.42;;;;;;;;;;5034823;28;20507;-76
2021/09/18 05:06:20;;;;;;;4.95;3.38;;;;;;;;;;5038496;28;20072;-77
2021/09/18 05:08:47;;;;;;;7.05;4.00;;;;;;;;;;5033605;28;20046;-76
2021/09/18 05:11:13;;;;;;;15.50;3.92;;;;;;;;;;5035668;28;20056;-77
2021/09/18 05:13:40;;;;;;;8.27;3.10;;;;;;;;;;5036167;28;20121;-77
2021/09/18 05:16:06;;;;;;;6.90;2.90;;;;;;;;;;5033484;28;20054;-77
2021/09/18 05:18:33;;;;;;;5.78;3.72;;;;;;;;;;5035912;28;20052;-77
2021/09/18 05:20:59;;;;;;;5.57;3.08;;;;;;;;;;5037419;28;20056;-77
2021/09/18 05:23:27;;;;;;;6.75;2.50;;;;;;;;;;5033806;28;20053;-77
2021/09/18 05:25:54;;;;;;;6.93;3.08;;;;;;;;;;5035812;28;20045;-76
2021/09/18 05:28:20;;;;;;;6.05;3.05;;;;;;;;;;5033983;28;20056;-77
2021/09/18 05:30:47;;;;;;;5.65;3.58;;;;;;;;;;5033703;28;20050;-76
2021/09/18 05:33:13;;;;;;;7.10;3.30;;;;;;;;;;5032860;28;20048;-76
2021/09/18 05:35:40;;;;;;;7.40;3.50;;;;;;;;;;5033503;28;20474;-77
2021/09/18 05:38:06;;;;;;;8.55;3.80;;;;;;;;;;5032981;28;20398;-76
2021/09/18 05:40:34;;;;;;;5.13;2.88;;;;;;;;;;5035317;28;20476;-77
2021/09/18 05:43:00;;;;;;;3.83;2.67;;;;;;;;;;5034129;28;20049;-77
2021/09/18 05:45:28;;;;;;;6.22;3.50;;;;;;;;;;5034632;28;20053;-77
2021/09/18 05:47:54;;;;;;;5.25;3.13;;;;;;;;;;5033231;28;20060;-77
2021/09/18 05:50:21;;;;;;;7.95;3.15;;;;;;;;;;5033967;28;20052;-77
2021/09/18 05:52:47;;;;;;;4.78;2.83;;;;;;;;;;5034106;28;20056;-77
2021/09/18 05:55:14;;;;;;;6.68;2.92;;;;;;;;;;5033584;28;20491;-77
2021/09/18 05:57:41;;;;;;;4.75;2.95;;;;;;;;;;5033677;28;20056;-76
2021/09/18 06:00:09;;;;;;;4.60;2.83;;;;;;;;;;5032364;28;20046;-77
2021/09/18 06:02:36;;;;;;;5.43;2.78;;;;;;;;;;5032924;28;20041;-77
2021/09/18 06:05:02;;;;;;;5.43;3.35;;;;;;;;;;5032218;28;20129;-77
2021/09/18 06:07:29;;;;;;;6.38;3.60;;;;;;;;;;5033659;28;20053;-77
2021/09/18 06:09:55;;;;;;;4.80;2.85;;;;;;;;;;5032663;28;20050;-76
2021/09/18 06:12:22;;;;;;;3.97;2.53;;;;;;;;;;5032471;28;20056;-77
2021/09/18 06:14:50;;;;;;;6.07;3.40;;;;;;;;;;5033257;28;20075;-76
2021/09/18 06:17:17;;;;;;;4.78;2.92;;;;;;;;;;5033118;28;20136;-77
2021/09/18 06:19:43;;;;;;;7.25;3.85;;;;;;;;;;5031270;28;20046;-77
2021/09/18 06:22:12;;;;;;;6.07;3.05;;;;;;;;;;5032655;28;20056;-77
2021/09/18 06:24:39;;;;;;;8.52;3.78;;;;;;;;;;5031131;28;20144;-76
2021/09/18 06:27:05;;;;;;;6.78;3.80;;;;;;;;;;5031011;28;20487;-77
2021/09/18 06:29:32;;;;;;;5.75;4.00;;;;;;;;;;5031603;28;20041;-77
2021/09/18 06:32:00;;;;;;;7.95;5.13;;;;;;;;;;5031320;28;20049;-77
2021/09/18 06:34:27;;;;;;;9.00;5.18;;;;;;;;;;5030575;28;20670;-76
2021/09/18 06:36:54;;;;;;;7.75;4.53;;;;;;;;;;5032004;28;20041;-76
2021/09/18 06:39:20;;;;;;;9.20;5.55;;;;;;;;;;5029527;28;20057;-77
2021/09/18 06:41:47;;;;;;;7.90;5.18;;;;;;;;;;5031697;28;20045;-77
2021/09/18 06:44:13;;;;;;;9.23;5.55;;;;;;;;;;5032797;28;20045;-77
2021/09/18 06:46:40;;;;;;;8.65;4.65;;;;;;;;;;5032661;28;20068;-75
2021/09/18 06:49:08;;;;;;;9.63;4.97;;;;;;;;;;5033337;28;20052;-75
2021/09/18 06:51:34;;;;;;;24.85;6.70;;;;;;;;;;5033702;28;20048;-77
2021/09/18 06:54:01;;;;;;;10.75;4.78;;;;;;;;;;5033300;28;20049;-76
2021/09/18 06:56:28;;;;;;;10.73;5.15;;;;;;;;;;5028838;28;20486;-76
2021/09/18 06:58:55;;;;;;;9.85;5.15;;;;;;;;;;5033130;28;20072;-75
2021/09/18 07:01:22;;;;;;;8.27;5.32;;;;;;;;;;5032635;28;20046;-77
2021/09/18 07:03:49;;;;;;;8.93;5.57;;;;;;;;;;5031939;28;20057;-77
2021/09/18 07:06:17;;;;;;;12.07;6.40;;;;;;;;;;5032436;28;20049;-77
2021/09/18 07:08:43;;;;;;;10.95;6.28;;;;;;;;;;5030734;28;20045;-76
2021/09/18 07:11:10;;;;;;;9.68;5.68;;;;;;;;;;5031499;28;20403;-76
2021/09/18 07:13:36;;;;;;;11.20;6.38;;;;;;;;;;5031976;28;20411;-76
2021/09/18 07:16:03;;;;;;;9.65;5.82;;;;;;;;;;5031710;28;20045;-76
2021/09/18 07:18:30;;;;;;;9.38;5.97;;;;;;;;;;5031368;28;20057;-76
2021/09/18 07:20:57;;;;;;;9.98;6.03;;;;;;;;;;5030746;28;20041;-77
2021/09/18 07:23:25;;;;;;;9.68;6.18;;;;;;;;;;5025333;28;20052;-76
2021/09/18 07:25:51;;;;;;;11.32;6.53;;;;;;;;;;5028245;28;20111;-76
2021/09/18 07:28:18;;;;;;;9.95;6.28;;;;;;;;;;5026797;28;20061;-77
2021/09/18 07:30:45;;;;;;;9.60;5.82;;;;;;;;;;5025548;28;20411;-76
2021/09/18 07:33:11;;;;;;;10.50;6.65;;;;;;;;;;5021123;28;20483;-75
2021/09/18 07:35:38;;;;;;;12.25;7.60;;;;;;;;;;5030676;28;20053;-76
2021/09/18 07:38:04;;;;;;;12.48;8.07;;;;;;;;;;5030818;28;20053;-77
2021/09/18 07:40:33;;;;;;;15.07;9.90;;;;;;;;;;5031240;28;20049;-76
2021/09/18 07:43:00;;;;;;;15.45;8.98;;;;;;;;;;5031023;28;20057;-76
2021/09/18 07:45:27;;;;;;;13.70;9.15;;;;;;;;;;5031457;28;20053;-76
2021/09/18 07:47:53;;;;;;;14.30;9.75;;;;;;;;;;5030079;28;20056;-75
2021/09/18 07:50:20;;;;;;;14.57;8.77;;;;;;;;;;5031021;28;20415;-78
2021/09/18 07:52:46;;;;;;;15.70;9.85;;;;;;;;;;5031794;28;20064;-77
2021/09/18 07:55:13;;;;;;;13.45;9.55;;;;;;;;;;5031992;28;20057;-77
2021/09/18 07:57:41;;;;;;;12.55;9.30;;;;;;;;;;5032156;28;20053;-77
2021/09/18 08:00:09;;;;;;;12.77;8.88;;;;;;;;;;5031444;28;20048;-77
2021/09/18 08:02:36;;;;;;;11.13;8.73;;;;;;;;;;5032802;28;20050;-77
2021/09/18 08:05:03;;;;;;;15.77;9.73;;;;;;;;;;5030828;28;20128;-77
2021/09/18 08:07:30;;;;;;;15.75;9.85;;;;;;;;;;5030693;28;20049;-76
2021/09/18 08:09:56;;;;;;;12.93;10.13;;;;;;;;;;5030112;28;20041;-78
2021/09/18 08:12:23;;;;;;;13.60;9.35;;;;;;;;;;5030970;28;20053;-78
2021/09/18 08:14:51;;;;;;;13.45;9.02;;;;;;;;;;5031182;28;20503;-77
2021/09/18 08:17:18;;;;;;;12.75;9.68;;;;;;;;;;5031362;28;20051;-77
2021/09/18 08:19:45;;;;;;;12.00;9.75;;;;;;;;;;5030394;28;20079;-78
2021/09/18 08:22:11;;;;;;;12.93;9.07;;;;;;;;;;5030718;28;20411;-78
2021/09/18 08:24:38;;;;;;;12.77;9.00;;;;;;;;;;5034497;28;20081;-78
2021/09/18 08:27:04;;;;;;;11.63;8.85;;;;;;;;;;5036131;28;20061;-78
2021/09/18 08:29:31;;;;;;;13.85;9.63;;;;;;;;;;5034275;28;20069;-77
2021/09/18 08:31:59;;;;;;;11.20;8.30;;;;;;;;;;5035313;28;20041;-78
2021/09/18 08:34:26;;;;;;;12.77;8.63;;;;;;;;;;5033019;28;20044;-77
2021/09/18 08:36:53;;;;;;;12.50;7.57;;;;;;;;;;5035549;28;20060;-77
2021/09/18 08:39:20;;;;;;;10.35;7.95;;;;;;;;;;5035334;28;20513;-78
2021/09/18 08:41:48;;;;;;;11.13;9.27;;;;;;;;;;5035014;28;20055;-78
2021/09/18 08:44:14;;;;;;;9.93;6.93;;;;;;;;;;5034664;28;20045;-78
2021/09/18 08:46:42;;;;;;;12.15;8.32;;;;;;;;;;5034788;28;20060;-78
2021/09/18 08:49:11;;;;;;;10.35;7.90;;;;;;;;;;5034441;28;20053;-77
2021/09/18 08:51:38;;;;;;;10.35;8.43;;;;;;;;;;5035347;28;20053;-77
2021/09/18 08:54:05;;;;;;;9.68;7.53;;;;;;;;;;5035483;28;20526;-78
2021/09/18 08:56:31;;;;;;;9.68;7.13;;;;;;;;;;5034552;28;20050;-77
2021/09/18 08:58:58;;;;;;;9.45;7.30;;;;;;;;;;5035315;28;20056;-77
2021/09/18 09:01:26;;;;;;;9.68;7.30;;;;;;;;;;5034578;28;20049;-77
2021/09/18 09:03:56;;;;;;;10.85;7.47;;;;;;;;;;5035120;28;20087;-78
2021/09/18 09:06:26;;;;;;;10.85;7.32;;;;;;;;;;5035242;28;20049;-77
2021/09/18 09:08:56;;;;;;;9.82;7.13;;;;;;;;;;5032988;28;20050;-77
2021/09/18 09:11:25;;;;;;;10.65;6.90;;;;;;;;;;5033769;28;20376;-77
2021/09/18 09:13:56;;;;;;;10.15;7.30;;;;;;;;;;5034748;28;20678;-77
2021/09/18 09:16:23;;;;;;;9.00;7.15;;;;;;;;;;5030029;28;20057;-78
2021/09/18 09:18:50;;;;;;;10.27;6.32;;;;;;;;;;5026006;28;20411;-77
2021/09/18 09:21:20;;;;;;;7.20;5.47;;;;;;;;;;5030213;28;20038;-77
2021/09/18 09:24:06;;;;;;;6.70;5.15;;;;;;;;;;5031209;28;20049;-78
2021/09/18 09:26:33;;;;;;;6.63;4.90;;;;;;;;;;5030260;28;20058;-77
2021/09/18 09:29:00;;;;;;;6.03;4.60;;;;;;;;;;5033434;28;20052;-77
2021/09/18 09:31:28;;;;;;;5.55;4.10;;;;;;;;;;5034147;28;20096;-79
2021/09/18 09:34:07;;;;;;;8.35;4.93;;;;;;;;;;5034095;28;20063;-78
2021/09/18 09:36:40;;;;;;;5.47;4.43;;;;;;;;;;5031654;28;20440;-77
2021/09/18 09:39:09;;;;;;;5.78;4.60;;;;;;;;;;5034747;28;20415;-81
2021/09/18 09:41:38;;;;;;;6.32;4.57;;;;;;;;;;5036325;28;20168;-78
2021/09/18 09:44:08;;;;;;;7.00;4.40;;;;;;;;;;5034462;28;20480;-77
2021/09/18 09:46:35;;;;;;;6.18;4.80;;;;;;;;;;5033003;28;20129;-77
2021/09/18 09:49:10;;;;;;;6.70;4.45;;;;;;;;;;5033118;28;20049;-77
2021/09/18 09:51:37;;;;;;;5.38;4.30;;;;;;;;;;5033830;28;20037;-77
2021/09/18 09:54:25;;;;;;;6.18;3.67;;;;;;;;;;5033396;28;20053;-77
2021/09/18 09:57:09;;;;;;;5.38;3.40;;;;;;;;;;5033376;28;20064;-77
2021/09/18 09:59:36;;;;;;;5.05;3.50;;;;;;;;;;5030573;28;20060;-75
2021/09/18 10:02:05;;;;;;;5.45;3.10;;;;;;;;;;5037729;28;20046;-78
2021/09/18 10:04:32;;;;;;;6.18;3.83;;;;;;;;;;5036032;28;20057;-79
2021/09/18 10:06:59;;;;;;;8.70;4.95;;;;;;;;;;5033840;28;20435;-77
2021/09/18 10:09:27;;;;;;;4.95;3.90;;;;;;;;;;5037512;28;20041;-77
2021/09/18 10:11:56;;;;;;;4.25;3.65;;;;;;;;;;5042902;28;20052;-76
2021/09/18 10:14:25;;;;;;;5.35;3.60;;;;;;;;;;5052900;28;20474;-77
2021/09/18 10:16:55;;;;;;;4.50;3.47;;;;;;;;;;5051132;28;20053;-78
2021/09/18 10:19:32;;;;;;;5.20;3.40;;;;;;;;;;5029595;28;20438;-77
2021/09/18 10:24:45;;;;;;;4.90;3.47;;;;;;;;;;5033310;28;20526;-77
2021/09/18 10:27:17;;;;;;;4.65;3.17;;;;;;;;;;5032850;28;20503;-77
2021/09/18 10:29:43;;;;;;;4.95;2.70;;;;;;;;;;5032320;28;20041;-77
2021/09/18 10:32:10;;;;;;;4.25;2.60;;;;;;;;;;5030522;28;20045;-77
2021/09/18 10:34:37;;;;;;;5.90;2.60;;;;;;;;;;5032876;28;20076;-77
2021/09/18 10:37:03;;;;;;;4.55;2.72;;;;;;;;;;5031631;28;20053;-77
2021/09/18 10:39:30;;;;;;;3.90;2.33;;;;;;;;;;5032170;28;20060;-77
2021/09/18 10:41:59;;;;;;;5.93;3.40;;;;;;;;;;5032542;28;20053;-77
2021/09/18 10:44:45;;;;;;;4.88;2.90;;;;;;;;;;5027957;28;20049;-76
2021/09/18 10:47:13;;;;;;;3.60;2.80;;;;;;;;;;5024124;28;20053;-76
2021/09/18 10:49:42;;;;;;;4.72;2.88;;;;;;;;;;5030321;28;20041;-77
2021/09/18 10:52:24;;;;;;;4.25;2.67;;;;;;;;;;5023797;28;20042;-76
2021/09/18 10:55:09;;;;;;;5.40;2.97;;;;;;;;;;5030272;28;20053;-77
2021/09/18 10:58:07;;;;;;;2.80;1.98;;;;;;;;;;5030595;28;20053;-77
2021/09/18 11:00:52;;;;;;;3.15;2.00;;;;;;;;;;5030804;28;20487;-76
2021/09/18 11:03:34;;;;;;;2.90;2.17;;;;;;;;;;5032956;28;20132;-77
2021/09/18 11:06:01;;;;;;;2.83;2.22;;;;;;;;;;5029991;28;20055;-77
2021/09/18 11:08:34;;;;;;;4.10;2.22;;;;;;;;;;5031335;28;20050;-76
2021/09/18 11:11:04;;;;;;;3.88;2.15;;;;;;;;;;5031909;28;20072;-77
2021/09/18 11:13:37;;;;;;;4.05;2.70;;;;;;;;;;5030319;28;20045;-77
2021/09/18 11:16:07;;;;;;;4.50;2.90;;;;;;;;;;5031031;28;20053;-76
2021/09/18 11:18:36;;;;;;;3.72;2.40;;;;;;;;;;5031479;28;20056;-77
2021/09/18 11:21:07;;;;;;;4.28;2.30;;;;;;;;;;5032670;28;20491;-76
2021/09/18 11:23:36;;;;;;;3.42;2.08;;;;;;;;;;5029238;28;20046;-77
2021/09/18 11:26:07;;;;;;;3.85;1.90;;;;;;;;;;5031557;28;20054;-76
2021/09/18 11:28:35;;;;;;;3.13;2.30;;;;;;;;;;5030436;28;20037;-77
2021/09/18 11:31:02;;;;;;;2.40;1.58;;;;;;;;;;5031967;28;20057;-77
2021/09/18 11:33:28;;;;;;;2.40;1.42;;;;;;;;;;5031088;28;20049;-77
2021/09/18 11:35:57;;;;;;;3.35;1.98;;;;;;;;;;5031921;28;20045;-77
2021/09/18 11:38:25;;;;;;;3.83;1.80;;;;;;;;;;5028056;28;20064;-77
2021/09/18 11:40:52;;;;;;;3.05;1.60;;;;;;;;;;5031937;28;20049;-77
2021/09/18 11:43:26;;;;;;;2.40;1.75;;;;;;;;;;5031847;28;20046;-77
2021/09/18 11:45:54;;;;;;;3.77;1.90;;;;;;;;;;5032058;28;20053;-77
2021/09/18 11:48:22;;;;;;;2.38;1.58;;;;;;;;;;5031077;28;20288;-77
2021/09/18 11:50:49;;;;;;;3.30;1.50;;;;;;;;;;5031419;28;20458;-78
2021/09/18 11:53:16;;;;;;;2.17;1.38;;;;;;;;;;5031558;28;20065;-76
2021/09/18 11:55:44;;;;;;;1.65;1.17;;;;;;;;;;5032001;28;20053;-76
2021/09/18 11:58:13;;;;;;;2.75;1.30;;;;;;;;;;5032187;28;20069;-77
2021/09/18 12:00:44;;;;;;;2.38;1.52;;;;;;;;;;5034323;28;20037;-76
2021/09/18 12:03:12;;;;;;;3.08;1.98;;;;;;;;;;5016372;28;20100;-77
2021/09/18 12:05:39;;;;;;;2.67;1.85;;;;;;;;;;5015812;28;20455;-77
2021/09/18 12:08:07;;;;;;;2.28;1.50;;;;;;;;;;5023954;28;20403;-78
2021/09/18 12:10:33;;;;;;;2.45;1.50;;;;;;;;;;5035502;28;20056;-76
2021/09/18 12:13:01;;;;;;;1.73;1.17;;;;;;;;;;5035409;28;20061;-77
2021/09/18 12:15:29;;;;;;;1.63;1.30;;;;;;;;;;5035550;28;20049;-77
2021/09/18 12:17:56;;;;;;;2.22;1.33;;;;;;;;;;5034966;28;20049;-76
2021/09/18 12:20:24;;;;;;;1.55;1.10;;;;;;;;;;5035376;28;20064;-77
2021/09/18 12:22:51;;;;;;;2.95;1.50;;;;;;;;;;5035091;28;20041;-77
2021/09/18 12:25:24;;;;;;;1.60;1.10;;;;;;;;;;5035199;28;20050;-77
2021/09/18 12:27:54;;;;;;;1.55;1.30;;;;;;;;;;5034260;28;20050;-77
2021/09/18 12:30:24;;;;;;;2.13;1.27;;;;;;;;;;5033942;28;20041;-76
2021/09/18 12:33:01;;;;;;;2.35;1.60;;;;;;;;;;5035180;28;20103;-77
2021/09/18 12:35:37;;;;;;;2.22;1.58;;;;;;;;;;5033704;28;20057;-77
2021/09/18 12:38:04;;;;;;;3.15;1.48;;;;;;;;;;5031636;28;20057;-76
2021/09/18 12:40:38;;;;;;;2.58;1.50;;;;;;;;;;5034229;28;20084;-76
2021/09/18 12:43:13;;;;;;;2.55;1.50;;;;;;;;;;5034894;28;20042;-76
2021/09/18 12:45:39;;;;;;;2.00;1.05;;;;;;;;;;5033908;28;20053;-77
2021/09/18 12:48:18;;;;;;;1.75;1.10;;;;;;;;;;5034278;28;20048;-77
2021/09/18 12:50:58;;;;;;;2.10;1.15;;;;;;;;;;5024600;28;20488;-77
2021/09/18 12:53:27;;;;;;;1.83;1.30;;;;;;;;;;5034999;28;20041;-77
2021/09/18 12:56:13;;;;;;;2.33;1.50;;;;;;;;;;5034941;28;20464;-77
2021/09/18 12:58:41;;;;;;;1.73;1.10;;;;;;;;;;5033700;28;20056;-77
2021/09/18 13:01:09;;;;;;;3.63;1.70;;;;;;;;;;5034628;28;20049;-76
2021/09/18 13:03:36;;;;;;;1.70;1.23;;;;;;;;;;5034543;28;20045;-78
2021/09/18 13:06:08;;;;;;;1.88;1.20;;;;;;;;;;5034575;28;20053;-77
2021/09/18 13:08:47;;;;;;;3.15;1.30;;;;;;;;;;5033951;28;20056;-77
2021/09/18 13:11:16;;;;;;;1.88;1.05;;;;;;;;;;5032650;28;20471;-76
2021/09/18 13:13:42;;;;;;;1.70;1.02;;;;;;;;;;5034222;28;20057;-76
2021/09/18 13:16:09;;;;;;;3.85;1.35;;;;;;;;;;5034743;28;20060;-77
2021/09/18 13:18:35;;;;;;;2.13;1.25;;;;;;;;;;5034500;28;20045;-77
2021/09/18 13:21:02;;;;;;;2.35;1.27;;;;;;;;;;5034901;28;20053;-77
2021/09/18 13:23:30;;;;;;;4.70;1.45;;;;;;;;;;5034803;28;20045;-77
2021/09/18 13:25:56;;;;;;;6.30;1.77;;;;;;;;;;5034471;28;20057;-77
2021/09/18 13:28:25;;;;;;;3.45;1.50;;;;;;;;;;5033406;28;20483;-76
2021/09/18 13:30:52;;;;;;;4.78;1.95;;;;;;;;;;5034046;28;20054;-77
2021/09/18 13:33:19;;;;;;;3.30;1.45;;;;;;;;;;5033636;28;20052;-76
2021/09/18 13:35:45;;;;;;;1.85;1.20;;;;;;;;;;5033874;28;20057;-77
2021/09/18 13:38:12;;;;;;;3.05;1.55;;;;;;;;;;5032220;28;20049;-76
2021/09/18 13:40:40;;;;;;;2.35;1.45;;;;;;;;;;5032601;28;20053;-77
2021/09/18 13:43:06;;;;;;;3.35;1.60;;;;;;;;;;5030188;28;20049;-76
2021/09/18 13:45:33;;;;;;;2.60;1.50;;;;;;;;;;5028616;28;20494;-77
2021/09/18 13:48:00;;;;;;;2.42;1.75;;;;;;;;;;5033331;28;20053;-77
2021/09/18 13:50:26;;;;;;;5.13;1.80;;;;;;;;;;5030301;28;20109;-77
2021/09/18 13:52:53;;;;;;;4.38;2.05;;;;;;;;;;5033720;28;20056;-77
2021/09/18 13:55:19;;;;;;;6.10;1.60;;;;;;;;;;5032133;28;20057;-77
2021/09/18 13:57:47;;;;;;;3.47;1.65;;;;;;;;;;5031313;28;20411;-77
2021/09/18 14:00:14;;;;;;;4.47;1.77;;;;;;;;;;5034293;28;20586;-76
2021/09/18 14:02:41;;;;;;;2.50;1.63;;;;;;;;;;5034027;28;20052;-76
2021/09/18 14:05:09;;;;;;;3.55;1.60;;;;;;;;;;5033583;28;20050;-76
2021/09/18 14:07:36;;;;;;;2.90;1.83;;;;;;;;;;5032597;28;20045;-76
2021/09/18 14:10:03;;;;;;;2.55;1.50;;;;;;;;;;5031879;28;20056;-76
2021/09/18 14:12:30;;;;;;;2.88;1.58;;;;;;;;;;5027981;28;20658;-76
2021/09/18 14:14:58;;;;;;;3.83;1.85;;;;;;;;;;5026963;28;20156;-76
2021/09/18 14:17:24;;;;;;;4.43;1.85;;;;;;;;;;5028513;28;20042;-77
2021/09/18 14:19:51;;;;;;;2.45;1.60;;;;;;;;;;5028398;28;20041;-76
2021/09/18 14:22:17;;;;;;;2.65;1.60;;;;;;;;;;5024407;28;20053;-76
2021/09/18 14:24:44;;;;;;;2.38;1.48;;;;;;;;;;5025894;28;20059;-77
2021/09/18 14:27:10;;;;;;;2.33;1.65;;;;;;;;;;5031647;28;20052;-76
2021/09/18 14:29:37;;;;;;;2.55;1.40;;;;;;;;;;5027639;28;20053;-76
2021/09/18 14:32:06;;;;;;;2.38;1.50;;;;;;;;;;5028674;28;20057;-76
2021/09/18 14:34:32;;;;;;;6.68;1.88;;;;;;;;;;5032017;28;20499;-77
2021/09/18 14:37:00;;;;;;;3.28;1.98;;;;;;;;;;5031874;28;20412;-76
2021/09/18 14:39:27;;;;;;;2.50;1.75;;;;;;;;;;5026397;28;20408;-76
2021/09/18 14:41:54;;;;;;;4.28;1.90;;;;;;;;;;5028986;28;20056;-77
2021/09/18 14:44:20;;;;;;;2.60;1.90;;;;;;;;;;5027189;28;20060;-77
2021/09/18 14:46:47;;;;;;;4.20;1.50;;;;;;;;;;5032373;28;20056;-77